createdAt,value
2018-09-09T00:00:47.793Z,98311.20
2018-09-09T00:01:54.276Z,98313.36
2018-09-09T00:02:58.742Z,98317.50
2018-09-09T00:04:04.245Z,98320.21
2018-09-09T00:05:08.800Z,98313.83
2018-09-09T00:06:13.301Z,98318.83
2018-09-09T00:07:17.842Z,98311.45
2018-09-09T00:08:22.551Z,98313.06
2018-09-09T00:09:32.150Z,98314.15
2018-09-09T00:10:37.567Z,98320.36
2018-09-09T00:11:42.076Z,98321.36
2018-09-09T00:12:47.771Z,98327.97
2018-09-09T00:13:52.218Z,98323.55
2018-09-09T00:14:57.011Z,98321.66
2018-09-09T00:16:01.571Z,98324.81
2018-09-09T00:17:06.294Z,98326.34
2018-09-09T00:18:10.737Z,98326.71
2018-09-09T00:19:15.273Z,98331.13
2018-09-09T00:20:20.022Z,98327.16
2018-09-09T00:21:24.825Z,98327.70
2018-09-09T00:22:29.284Z,98321.21
2018-09-09T00:23:33.979Z,98320.71
2018-09-09T00:24:38.468Z,98328.00
2018-09-09T00:25:43.059Z,98325.84
2018-09-09T00:26:47.521Z,98321.25
2018-09-09T00:27:52.276Z,98316.57
2018-09-09T00:28:56.730Z,98315.31
2018-09-09T00:30:01.287Z,98312.30
2018-09-09T00:31:06.433Z,98313.20
2018-09-09T00:32:10.969Z,98315.45
2018-09-09T00:33:15.853Z,98318.02
2018-09-09T00:34:20.815Z,98317.39
2018-09-09T00:35:25.292Z,98315.41
2018-09-09T00:36:29.744Z,98316.75
2018-09-09T00:37:34.543Z,98321.88
2018-09-09T00:38:39.061Z,98318.19
2018-09-09T00:39:43.772Z,98321.97
2018-09-09T00:40:48.624Z,98314.73
2018-09-09T00:41:53.193Z,98317.92
2018-09-09T00:42:57.656Z,98319.36
2018-09-09T00:44:02.116Z,98314.32
2018-09-09T00:45:06.849Z,98314.32
2018-09-09T00:46:11.365Z,98312.34
2018-09-09T00:47:16.212Z,98312.70
2018-09-09T00:48:20.737Z,98318.91
2018-09-09T00:49:30.248Z,98320.62
2018-09-09T00:50:39.810Z,98315.40
2018-09-09T00:51:49.305Z,98314.64
2018-09-09T00:52:59.084Z,98313.19
2018-09-09T00:54:03.615Z,98307.05
2018-09-09T00:55:08.098Z,98308.53
2018-09-09T00:56:12.688Z,98306.62
2018-09-09T00:57:17.135Z,98311.13
2018-09-09T00:58:21.630Z,98319.32
2018-09-09T00:59:27.180Z,98313.30
2018-09-09T01:01:37.119Z,98314.39
2018-09-09T01:02:41.619Z,98315.81
2018-09-09T01:03:47.310Z,98312.47
2018-09-09T01:04:51.812Z,98313.98
2018-09-09T01:05:56.635Z,98315.61
2018-09-09T01:07:01.949Z,98321.34
2018-09-09T01:08:07.384Z,98323.11
2018-09-09T01:09:12.601Z,98317.20
2018-09-09T01:10:17.080Z,98314.74
2018-09-09T01:11:21.558Z,98318.84
2018-09-09T01:12:26.375Z,98315.32
2018-09-09T01:13:30.917Z,98315.01
2018-09-09T01:14:35.753Z,98314.36
2018-09-09T01:15:40.215Z,98308.31
2018-09-09T01:16:44.758Z,98311.56
2018-09-09T01:17:49.246Z,98313.38
2018-09-09T01:18:54.012Z,98314.70
2018-09-09T01:19:58.488Z,98314.09
2018-09-09T01:21:02.957Z,98312.83
2018-09-09T01:22:07.448Z,98306.09
2018-09-09T01:23:11.997Z,98310.68
2018-09-09T01:24:16.491Z,98305.73
2018-09-09T01:25:21.238Z,98309.51
2018-09-09T01:26:25.735Z,98312.92
2018-09-09T01:27:30.221Z,98309.67
2018-09-09T01:28:34.769Z,98310.20
2018-09-09T01:29:39.277Z,98312.41
2018-09-09T01:30:43.876Z,98311.48
2018-09-09T01:31:48.646Z,98310.75
2018-09-09T01:32:53.095Z,98315.70
2018-09-09T01:33:57.658Z,98319.39
2018-09-09T01:35:02.125Z,98316.63
2018-09-09T01:36:07.300Z,98319.38
2018-09-09T01:37:11.807Z,98312.55
2018-09-09T01:38:17.664Z,98312.11
2018-09-09T01:39:22.146Z,98317.14
2018-09-09T01:40:26.601Z,98321.28
2018-09-09T01:41:31.096Z,98322.02
2018-09-09T01:42:36.400Z,98323.27
2018-09-09T01:43:40.881Z,98321.28
2018-09-09T01:44:46.157Z,98318.77
2018-09-09T01:45:50.621Z,98318.41
2018-09-09T01:46:55.071Z,98313.53
2018-09-09T01:47:59.555Z,98313.27
2018-09-09T01:49:04.125Z,98310.22
2018-09-09T01:50:08.892Z,98313.02
2018-09-09T01:51:14.119Z,98309.97
2018-09-09T01:52:18.608Z,98309.08
2018-09-09T01:53:23.079Z,98315.23
2018-09-09T01:54:27.609Z,98315.52
2018-09-09T01:55:33.128Z,98317.87
2018-09-09T01:56:38.184Z,98318.88
2018-09-09T01:57:42.971Z,98318.63
2018-09-09T01:58:47.423Z,98311.80
2018-09-09T01:59:51.887Z,98311.27
2018-09-09T02:00:56.424Z,98308.30
2018-09-09T02:02:00.921Z,98309.01
2018-09-09T02:03:05.618Z,98312.67
2018-09-09T02:04:10.374Z,98313.40
2018-09-09T02:05:14.887Z,98317.54
2018-09-09T02:06:19.403Z,98312.95
2018-09-09T02:07:23.976Z,98312.75
2018-09-09T02:08:28.463Z,98309.87
2018-09-09T02:09:32.978Z,98307.88
2018-09-09T02:10:37.906Z,98307.88
2018-09-09T02:11:42.382Z,98307.88
2018-09-09T02:12:47.669Z,98308.33
2018-09-09T02:13:52.213Z,98305.09
2018-09-09T02:14:57.686Z,98302.94
2018-09-09T02:16:02.877Z,98303.74
2018-09-09T02:17:08.595Z,98302.03
2018-09-09T02:18:13.057Z,98301.97
2018-09-09T02:19:17.948Z,98299.78
2018-09-09T02:20:22.854Z,98294.92
2018-09-09T02:21:27.904Z,98293.54
2018-09-09T02:22:32.328Z,98291.84
2018-09-09T02:23:37.863Z,98295.66
2018-09-09T02:24:42.845Z,98295.38
2018-09-09T02:25:48.130Z,98294.13
2018-09-09T02:26:54.048Z,98294.13
2018-09-09T02:27:58.533Z,98293.83
2018-09-09T02:29:02.978Z,98296.14
2018-09-09T02:30:07.906Z,98301.55
2018-09-09T02:31:12.539Z,98299.19
2018-09-09T02:32:17.049Z,98303.53
2018-09-09T02:33:23.021Z,98298.09
2018-09-09T02:34:27.490Z,98290.62
2018-09-09T02:35:31.985Z,98285.31
2018-09-09T02:36:36.780Z,98276.75
2018-09-09T02:37:41.264Z,98273.70
2018-09-09T02:38:45.705Z,98280.73
2018-09-09T02:39:50.216Z,98289.53
2018-09-09T02:40:54.670Z,98300.70
2018-09-09T02:41:59.123Z,98302.16
2018-09-09T02:43:05.040Z,98306.86
2018-09-09T02:44:09.688Z,98302.06
2018-09-09T02:45:15.086Z,98300.72
2018-09-09T02:46:21.658Z,98301.54
2018-09-09T02:47:28.216Z,98308.52
2018-09-09T02:48:32.704Z,98308.20
2018-09-09T02:49:38.327Z,98305.61
2018-09-09T02:50:42.890Z,98314.20
2018-09-09T02:51:47.367Z,98311.61
2018-09-09T02:52:51.864Z,98316.47
2018-09-09T02:53:57.336Z,98320.09
2018-09-09T02:55:02.581Z,98317.69
2018-09-09T02:56:10.158Z,98322.56
2018-09-09T02:57:14.820Z,98319.83
2018-09-09T02:58:19.369Z,98320.92
2018-09-09T02:59:23.831Z,98316.16
2018-09-09T03:00:28.365Z,98318.59
2018-09-09T03:01:32.821Z,98322.66
2018-09-09T03:02:37.805Z,98316.28
2018-09-09T03:03:42.290Z,98313.23
2018-09-09T03:04:46.746Z,98316.48
2018-09-09T03:05:51.242Z,98315.58
2018-09-09T03:06:55.680Z,98315.95
2018-09-09T03:08:00.144Z,98318.09
2018-09-09T03:09:05.320Z,98315.66
2018-09-09T03:10:09.796Z,98321.52
2018-09-09T03:11:14.764Z,98320.17
2018-09-09T03:12:19.253Z,98320.98
2018-09-09T03:13:23.749Z,98323.50
2018-09-09T03:14:28.400Z,98321.71
2018-09-09T03:15:33.343Z,98317.57
2018-09-09T03:16:37.798Z,98319.19
2018-09-09T03:17:42.250Z,98318.34
2018-09-09T03:18:46.747Z,98316.16
2018-09-09T03:19:51.235Z,98313.53
2018-09-09T03:20:55.683Z,98314.88
2018-09-09T03:22:00.639Z,98308.06
2018-09-09T03:23:05.151Z,98310.55
2018-09-09T03:24:09.660Z,98310.18
2018-09-09T03:25:14.108Z,98308.48
2018-09-09T03:26:18.615Z,98298.12
2018-09-09T03:27:23.074Z,98293.19
2018-09-09T03:28:27.921Z,98292.38
2018-09-09T03:29:32.440Z,98293.92
2018-09-09T03:30:36.939Z,98289.25
2018-09-09T03:31:41.573Z,98287.17
2018-09-09T03:32:46.130Z,98283.81
2018-09-09T03:33:50.651Z,98283.61
2018-09-09T03:34:55.720Z,98285.97
2018-09-09T03:36:00.882Z,98286.98
2018-09-09T03:37:05.368Z,98292.21
2018-09-09T03:38:09.902Z,98295.41
2018-09-09T03:39:14.706Z,98293.26
2018-09-09T03:40:19.187Z,98300.80
2018-09-09T03:41:24.345Z,98304.13
2018-09-09T03:42:29.122Z,98299.91
2018-09-09T03:43:33.662Z,98309.00
2018-09-09T03:44:38.165Z,98309.66
2018-09-09T03:45:42.698Z,98306.89
2018-09-09T03:46:47.197Z,98313.91
2018-09-09T03:47:52.164Z,98314.64
2018-09-09T03:48:56.643Z,98314.11
2018-09-09T03:50:01.160Z,98318.20
2018-09-09T03:51:05.623Z,98311.45
2018-09-09T03:52:10.150Z,98310.56
2018-09-09T03:53:14.926Z,98311.39
2018-09-09T03:54:19.888Z,98301.83
2018-09-09T03:55:24.355Z,98305.52
2018-09-09T03:56:30.359Z,98304.58
2018-09-09T03:57:34.852Z,98315.83
2018-09-09T03:58:39.376Z,98315.95
2018-09-09T03:59:43.829Z,98317.94
2018-09-09T04:00:48.743Z,98319.41
2018-09-09T04:01:53.211Z,98322.13
2018-09-09T04:02:57.770Z,98321.83
2018-09-09T04:04:02.391Z,98321.22
2018-09-09T04:05:06.963Z,98318.18
2018-09-09T04:06:11.426Z,98317.20
2018-09-09T04:07:16.363Z,98315.86
2018-09-09T04:08:20.820Z,98319.92
2018-09-09T04:09:25.412Z,98327.84
2018-09-09T04:10:29.967Z,98321.91
2018-09-09T04:11:34.433Z,98323.58
2018-09-09T04:12:38.923Z,98329.30
2018-09-09T04:13:44.214Z,98330.16
2018-09-09T04:14:48.733Z,98330.16
2018-09-09T04:15:53.213Z,98339.61
2018-09-09T04:16:57.756Z,98339.01
2018-09-09T04:18:02.215Z,98335.44
2018-09-09T04:19:07.299Z,98336.41
2018-09-09T04:20:12.158Z,98341.20
2018-09-09T04:21:16.636Z,98334.38
2018-09-09T04:22:21.099Z,98338.44
2018-09-09T04:23:25.585Z,98336.45
2018-09-09T04:24:30.216Z,98340.37
2018-09-09T04:25:34.772Z,98336.61
2018-09-09T04:26:39.741Z,98332.02
2018-09-09T04:27:44.244Z,98341.64
2018-09-09T04:28:49.551Z,98336.08
2018-09-09T04:29:54.356Z,98329.34
2018-09-09T04:30:58.915Z,98334.82
2018-09-09T04:32:03.462Z,98341.36
2018-09-09T04:33:08.440Z,98336.04
2018-09-09T04:34:15.743Z,98339.58
2018-09-09T04:35:20.223Z,98335.92
2018-09-09T04:36:24.680Z,98336.03
2018-09-09T04:37:29.222Z,98330.91
2018-09-09T04:38:34.252Z,98335.45
2018-09-09T04:39:39.191Z,98332.20
2018-09-09T04:40:43.714Z,98330.94
2018-09-09T04:41:48.150Z,98331.23
2018-09-09T04:42:52.633Z,98332.13
2018-09-09T04:43:57.126Z,98334.88
2018-09-09T04:45:01.627Z,98333.48
2018-09-09T04:46:06.489Z,98330.56
2018-09-09T04:47:11.966Z,98327.61
2018-09-09T04:48:16.444Z,98327.92
2018-09-09T04:49:20.891Z,98332.80
2018-09-09T04:50:25.345Z,98337.25
2018-09-09T04:51:30.700Z,98329.25
2018-09-09T04:52:35.769Z,98331.32
2018-09-09T04:53:41.991Z,98333.17
2018-09-09T04:54:46.495Z,98330.53
2018-09-09T04:55:50.979Z,98331.25
2018-09-09T04:56:55.965Z,98331.03
2018-09-09T04:58:00.458Z,98332.81
2018-09-09T04:59:05.334Z,98327.93
2018-09-09T05:00:11.003Z,98325.64
2018-09-09T05:01:15.522Z,98323.70
2018-09-09T05:02:20.866Z,98327.62
2018-09-09T05:03:25.423Z,98325.71
2018-09-09T05:04:30.877Z,98327.56
2018-09-09T05:05:35.849Z,98328.01
2018-09-09T05:06:40.319Z,98328.83
2018-09-09T05:07:45.082Z,98330.81
2018-09-09T05:08:51.125Z,98331.41
2018-09-09T05:09:55.658Z,98333.48
2018-09-09T05:11:00.112Z,98333.48
2018-09-09T05:12:05.363Z,98326.46
2018-09-09T05:13:09.810Z,98325.58
2018-09-09T05:14:14.896Z,98329.19
2018-09-09T05:15:19.471Z,98324.45
2018-09-09T05:16:24.043Z,98329.63
2018-09-09T05:17:28.599Z,98339.77
2018-09-09T05:18:33.498Z,98344.12
2018-09-09T05:19:38.016Z,98345.84
2018-09-09T05:20:42.610Z,98343.02
2018-09-09T05:21:47.167Z,98347.74
2018-09-09T05:22:51.753Z,98339.52
2018-09-09T05:23:56.342Z,98340.87
2018-09-09T05:25:01.210Z,98344.77
2018-09-09T05:26:05.685Z,98346.63
2018-09-09T05:27:10.155Z,98344.35
2018-09-09T05:28:14.596Z,98334.66
2018-09-09T05:29:20.017Z,98331.70
2018-09-09T05:33:29.276Z,98328.08
2018-09-09T05:34:34.387Z,98329.02
2018-09-09T05:35:38.875Z,98323.18
2018-09-09T05:36:43.370Z,98326.43
2018-09-09T05:37:47.835Z,98327.20
2018-09-09T05:38:52.677Z,98327.20
2018-09-09T05:39:57.186Z,98330.89
2018-09-09T05:41:01.753Z,98329.92
2018-09-09T05:42:06.254Z,98333.91
2018-09-09T05:43:10.802Z,98335.81
2018-09-09T05:44:15.374Z,98336.76
2018-09-09T05:45:20.407Z,98341.95
2018-09-09T05:46:24.944Z,98342.45
2018-09-09T05:47:29.441Z,98342.73
2018-09-09T05:48:33.958Z,98343.26
2018-09-09T05:49:38.511Z,98347.77
2018-09-09T05:50:43.858Z,98337.09
2018-09-09T05:51:50.379Z,98338.64
2018-09-09T05:52:55.783Z,98348.50
2018-09-09T05:54:00.305Z,98351.98
2018-09-09T05:55:04.773Z,98340.95
2018-09-09T05:56:09.260Z,98337.46
2018-09-09T05:57:14.675Z,98338.72
2018-09-09T05:58:19.591Z,98347.23
2018-09-09T05:59:24.042Z,98347.84
2018-09-09T06:00:28.497Z,98345.77
2018-09-09T06:01:33.005Z,98341.92
2018-09-09T06:02:40.368Z,98348.05
2018-09-09T06:03:44.943Z,98339.90
2018-09-09T06:04:49.725Z,98349.23
2018-09-09T06:05:54.236Z,98346.19
2018-09-09T06:06:58.739Z,98351.80
2018-09-09T06:08:03.308Z,98361.05
2018-09-09T06:09:08.524Z,98362.80
2018-09-09T06:10:13.110Z,98366.16
2018-09-09T06:11:18.113Z,98360.22
2018-09-09T06:12:22.609Z,98349.91
2018-09-09T06:13:27.705Z,98349.98
2018-09-09T06:14:32.215Z,98356.89
2018-09-09T06:15:36.701Z,98354.66
2018-09-09T06:16:41.203Z,98354.63
2018-09-09T06:17:47.050Z,98360.63
2018-09-09T06:18:51.502Z,98357.79
2018-09-09T06:19:55.988Z,98351.73
2018-09-09T06:21:00.506Z,98350.81
2018-09-09T06:22:05.941Z,98354.34
2018-09-09T06:23:10.424Z,98358.12
2018-09-09T06:24:15.286Z,98351.66
2018-09-09T06:25:20.764Z,98353.20
2018-09-09T06:26:25.237Z,98355.75
2018-09-09T06:27:29.722Z,98357.81
2018-09-09T06:28:38.382Z,98354.66
2018-09-09T06:29:45.843Z,98352.05
2018-09-09T06:30:52.829Z,98348.98
2018-09-09T06:32:03.497Z,98346.56
2018-09-09T06:33:08.656Z,98346.31
2018-09-09T06:34:13.722Z,98349.47
2018-09-09T06:35:18.251Z,98349.47
2018-09-09T06:36:24.324Z,98357.84
2018-09-09T06:37:29.448Z,98355.43
2018-09-09T06:38:33.942Z,98362.68
2018-09-09T06:39:39.105Z,98354.95
2018-09-09T06:40:43.581Z,98364.49
2018-09-09T06:41:48.022Z,98359.16
2018-09-09T06:42:53.950Z,98365.41
2018-09-09T06:43:58.474Z,98365.77
2018-09-09T06:45:02.982Z,98363.22
2018-09-09T06:46:07.493Z,98368.64
2018-09-09T06:47:12.935Z,98365.23
2018-09-09T06:48:17.901Z,98361.05
2018-09-09T06:49:24.209Z,98363.59
2018-09-09T06:50:29.691Z,98360.08
2018-09-09T06:51:34.187Z,98351.52
2018-09-09T06:52:38.688Z,98350.98
2018-09-09T06:53:43.148Z,98359.72
2018-09-09T06:54:48.481Z,98356.93
2018-09-09T06:55:53.406Z,98365.67
2018-09-09T06:56:57.927Z,98361.52
2018-09-09T06:58:02.379Z,98366.03
2018-09-09T06:59:08.708Z,98374.27
2018-09-09T07:00:13.280Z,98374.53
2018-09-09T07:01:17.763Z,98376.97
2018-09-09T07:02:23.715Z,98378.50
2018-09-09T07:03:29.235Z,98380.31
2018-09-09T07:04:33.785Z,98382.84
2018-09-09T07:05:38.426Z,98393.33
2018-09-09T07:06:42.928Z,98392.79
2018-09-09T07:07:47.371Z,98393.45
2018-09-09T07:08:52.167Z,98394.27
2018-09-09T07:09:56.671Z,98395.97
2018-09-09T07:11:01.308Z,98399.22
2018-09-09T07:12:05.937Z,98393.18
2018-09-09T07:13:10.532Z,98396.16
2018-09-09T07:14:15.016Z,98398.05
2018-09-09T07:15:21.099Z,98397.41
2018-09-09T07:16:25.637Z,98402.45
2018-09-09T07:17:30.082Z,98403.23
2018-09-09T07:18:34.595Z,98404.05
2018-09-09T07:19:39.927Z,98399.17
2018-09-09T07:20:44.931Z,98398.25
2018-09-09T07:21:49.451Z,98400.16
2018-09-09T07:22:56.147Z,98398.62
2018-09-09T07:24:00.658Z,98398.70
2018-09-09T07:25:06.274Z,98399.41
2018-09-09T07:26:10.777Z,98395.08
2018-09-09T07:27:15.565Z,98401.70
2018-09-09T07:28:20.719Z,98408.00
2018-09-09T07:29:25.168Z,98396.38
2018-09-09T07:30:29.914Z,98401.94
2018-09-09T07:31:34.381Z,98402.16
2018-09-09T07:32:38.923Z,98403.05
2018-09-09T07:33:43.710Z,98403.22
2018-09-09T07:34:51.177Z,98402.86
2018-09-09T07:35:55.699Z,98406.53
2018-09-09T07:37:01.383Z,98404.30
2018-09-09T07:38:06.728Z,98395.41
2018-09-09T07:39:11.610Z,98399.48
2018-09-09T07:40:16.400Z,98402.11
2018-09-09T07:41:20.900Z,98405.28
2018-09-09T07:42:26.652Z,98404.14
2018-09-09T07:43:31.147Z,98409.97
2018-09-09T07:44:35.691Z,98409.65
2018-09-09T07:45:41.980Z,98409.20
2018-09-09T07:46:46.814Z,98404.80
2018-09-09T07:47:51.337Z,98407.08
2018-09-09T07:48:55.836Z,98413.34
2018-09-09T07:50:01.961Z,98415.81
2018-09-09T07:51:06.438Z,98415.13
2018-09-09T07:52:11.889Z,98414.03
2018-09-09T07:53:16.964Z,98410.98
2018-09-09T07:54:21.992Z,98415.06
2018-09-09T07:55:34.681Z,98415.29
2018-09-09T07:56:39.186Z,98411.67
2018-09-09T07:57:43.656Z,98419.70
2018-09-09T07:58:48.203Z,98409.80
2018-09-09T07:59:53.347Z,98422.00
2018-09-09T08:00:57.837Z,98420.38
2018-09-09T08:02:06.969Z,98421.11
2018-09-09T08:03:13.139Z,98423.77
2018-09-09T08:04:17.633Z,98423.91
2018-09-09T08:05:22.815Z,98424.34
2018-09-09T08:06:27.585Z,98429.88
2018-09-09T08:07:32.505Z,98423.31
2018-09-09T08:08:37.440Z,98420.75
2018-09-09T08:09:42.150Z,98426.48
2018-09-09T08:10:46.659Z,98422.36
2018-09-09T08:11:51.140Z,98424.78
2018-09-09T08:12:55.949Z,98434.66
2018-09-09T08:14:02.456Z,98431.34
2018-09-09T08:15:07.152Z,98437.41
2018-09-09T08:16:13.651Z,98433.38
2018-09-09T08:17:19.116Z,98434.72
2018-09-09T08:18:23.752Z,98435.83
2018-09-09T08:19:28.618Z,98435.36
2018-09-09T08:20:33.140Z,98438.09
2018-09-09T08:21:37.682Z,98437.41
2018-09-09T08:22:42.188Z,98432.47
2018-09-09T08:23:46.717Z,98428.52
2018-09-09T08:24:52.381Z,98424.10
2018-09-09T08:25:57.215Z,98427.75
2018-09-09T08:27:01.756Z,98423.31
2018-09-09T08:28:07.261Z,98424.34
2018-09-09T08:29:12.798Z,98424.12
2018-09-09T08:30:17.359Z,98429.56
2018-09-09T08:31:23.464Z,98430.11
2018-09-09T08:32:28.691Z,98430.19
2018-09-09T08:33:33.231Z,98431.74
2018-09-09T08:34:38.405Z,98436.16
2018-09-09T08:35:43.765Z,98433.27
2018-09-09T08:36:48.364Z,98436.31
2018-09-09T08:37:52.946Z,98429.95
2018-09-09T08:38:58.394Z,98433.70
2018-09-09T08:40:02.989Z,98437.69
2018-09-09T08:41:07.809Z,98439.94
2018-09-09T08:42:12.704Z,98436.71
2018-09-09T08:43:17.192Z,98435.91
2018-09-09T08:44:21.789Z,98436.48
2018-09-09T08:45:26.597Z,98436.82
2018-09-09T08:46:31.155Z,98437.67
2018-09-09T08:47:37.540Z,98437.53
2018-09-09T08:48:42.053Z,98437.34
2018-09-09T08:49:47.586Z,98434.83
2018-09-09T08:50:56.191Z,98439.08
2018-09-09T08:52:01.133Z,98438.67
2018-09-09T08:53:08.433Z,98433.51
2018-09-09T08:54:15.935Z,98435.45
2018-09-09T08:55:21.723Z,98431.87
2018-09-09T08:56:26.500Z,98426.39
2018-09-09T08:57:31.649Z,98432.08
2018-09-09T08:58:41.294Z,98433.25
2018-09-09T08:59:47.020Z,98424.56
2018-09-09T09:00:54.644Z,98429.72
2018-09-09T09:02:00.325Z,98428.39
2018-09-09T09:03:05.572Z,98423.40
2018-09-09T09:04:11.620Z,98431.63
2018-09-09T09:05:21.754Z,98429.81
2018-09-09T09:06:29.054Z,98434.92
2018-09-09T09:07:34.772Z,98438.30
2018-09-09T09:08:39.416Z,98433.81
2018-09-09T09:09:44.347Z,98427.77
2018-09-09T09:10:48.921Z,98427.02
2018-09-09T09:11:53.942Z,98432.29
2018-09-09T09:12:58.503Z,98436.33
2018-09-09T09:14:04.091Z,98432.20
2018-09-09T09:15:09.535Z,98433.13
2018-09-09T09:16:14.084Z,98433.78
2018-09-09T09:17:18.772Z,98438.50
2018-09-09T09:18:25.799Z,98437.87
2018-09-09T09:19:30.309Z,98442.89
2018-09-09T09:20:36.156Z,98442.95
2018-09-09T09:21:41.900Z,98446.31
2018-09-09T09:22:48.008Z,98440.06
2018-09-09T09:23:52.825Z,98443.66
2018-09-09T09:24:58.386Z,98431.94
2018-09-09T09:26:03.574Z,98432.42
2018-09-09T09:27:08.114Z,98432.59
2018-09-09T09:28:12.711Z,98432.03
2018-09-09T09:29:17.698Z,98439.41
2018-09-09T09:30:22.377Z,98435.58
2018-09-09T09:31:27.244Z,98432.47
2018-09-09T09:32:32.617Z,98430.55
2018-09-09T09:33:38.016Z,98433.20
2018-09-09T09:34:44.124Z,98427.44
2018-09-09T09:35:49.110Z,98438.56
2018-09-09T09:36:53.789Z,98442.48
2018-09-09T09:37:58.776Z,98442.02
2018-09-09T09:39:05.286Z,98436.20
2018-09-09T09:40:09.891Z,98433.22
2018-09-09T09:41:14.508Z,98431.14
2018-09-09T09:42:19.024Z,98433.34
2018-09-09T09:43:24.609Z,98439.06
2018-09-09T09:44:29.424Z,98434.86
2018-09-09T09:45:33.955Z,98432.19
2018-09-09T09:46:39.467Z,98439.06
2018-09-09T09:47:44.146Z,98437.38
2018-09-09T09:48:48.694Z,98430.60
2018-09-09T09:49:53.538Z,98446.41
2018-09-09T09:50:58.530Z,98442.91
2018-09-09T09:52:03.732Z,98438.23
2018-09-09T09:53:08.364Z,98437.42
2018-09-09T09:54:13.604Z,98447.63
2018-09-09T09:55:18.365Z,98439.91
2018-09-09T09:56:22.954Z,98437.42
2018-09-09T09:57:27.878Z,98436.67
2018-09-09T09:58:34.692Z,98435.61
2018-09-09T09:59:39.248Z,98435.77
2018-09-09T10:00:48.923Z,98446.67
2018-09-09T10:01:53.423Z,98443.55
2018-09-09T10:02:58.276Z,98448.67
2018-09-09T10:04:03.271Z,98440.50
2018-09-09T10:05:08.624Z,98440.95
2018-09-09T10:06:13.184Z,98449.03
2018-09-09T10:07:17.785Z,98443.84
2018-09-09T10:08:23.401Z,98442.78
2018-09-09T10:09:28.273Z,98443.39
2018-09-09T10:10:32.815Z,98444.09
2018-09-09T10:11:37.377Z,98438.47
2018-09-09T10:12:42.062Z,98435.88
2018-09-09T10:13:46.653Z,98438.41
2018-09-09T10:14:53.443Z,98439.42
2018-09-09T10:15:59.625Z,98440.37
2018-09-09T10:17:05.020Z,98436.36
2018-09-09T10:18:09.630Z,98437.34
2018-09-09T10:19:14.174Z,98436.06
2018-09-09T10:20:20.228Z,98428.52
2018-09-09T10:21:24.776Z,98431.73
2018-09-09T10:22:31.390Z,98432.56
2018-09-09T10:23:35.988Z,98437.45
2018-09-09T10:24:40.564Z,98432.38
2018-09-09T10:25:46.021Z,98440.55
2018-09-09T10:26:50.783Z,98436.27
2018-09-09T10:27:55.305Z,98439.37
2018-09-09T10:29:00.283Z,98439.52
2018-09-09T10:30:05.013Z,98433.27
2018-09-09T10:32:34.453Z,98439.47
2018-09-09T10:33:39.818Z,98439.70
2018-09-09T10:34:44.382Z,98435.86
2018-09-09T10:35:50.696Z,98437.86
2018-09-09T10:36:55.258Z,98436.84
2018-09-09T10:38:01.309Z,98437.11
2018-09-09T10:39:07.502Z,98436.52
2018-09-09T10:40:12.090Z,98436.13
2018-09-09T10:41:16.673Z,98428.31
2018-09-09T10:42:22.024Z,98436.77
2018-09-09T10:43:27.368Z,98431.18
2018-09-09T10:44:32.017Z,98430.47
2018-09-09T10:45:37.285Z,98429.48
2018-09-09T10:46:42.285Z,98432.48
2018-09-09T10:47:49.959Z,98432.80
2018-09-09T10:48:55.560Z,98430.64
2018-09-09T10:50:01.058Z,98434.21
2018-09-09T10:51:05.832Z,98429.38
2018-09-09T10:52:10.908Z,98429.89
2018-09-09T10:53:15.648Z,98433.25
2018-09-09T10:54:21.918Z,98436.58
2018-09-09T10:55:27.272Z,98437.59
2018-09-09T10:56:31.839Z,98444.56
2018-09-09T10:57:37.289Z,98438.47
2018-09-09T10:58:41.905Z,98446.06
2018-09-09T10:59:46.462Z,98440.30
2018-09-09T11:00:52.345Z,98439.05
2018-09-09T11:01:57.718Z,98435.02
2018-09-09T11:03:02.310Z,98428.53
2018-09-09T11:04:06.872Z,98425.77
2018-09-09T11:05:11.815Z,98437.84
2018-09-09T11:06:16.354Z,98433.53
2018-09-09T11:07:22.727Z,98430.20
2018-09-09T11:08:28.263Z,98429.06
2018-09-09T11:09:32.974Z,98437.56
2018-09-09T11:10:38.823Z,98433.78
2018-09-09T11:11:44.423Z,98422.88
2018-09-09T11:12:49.061Z,98427.20
2018-09-09T11:13:54.654Z,98451.05
2018-09-09T11:15:02.376Z,98439.36
2018-09-09T11:16:07.035Z,98442.48
2018-09-09T11:17:11.613Z,98446.92
2018-09-09T11:18:16.152Z,98438.06
2018-09-09T11:19:20.676Z,98437.66
2018-09-09T11:20:25.227Z,98437.30
2018-09-09T11:21:31.839Z,98449.00
2018-09-09T11:22:40.044Z,98437.70
2018-09-09T11:23:45.513Z,98459.78
2018-09-09T11:24:51.060Z,98433.23
2018-09-09T11:25:56.288Z,98446.17
2018-09-09T11:27:16.817Z,98437.09
2018-09-09T11:28:21.345Z,98454.41
2018-09-09T11:29:26.688Z,98437.00
2018-09-09T11:30:32.778Z,98440.77
2018-09-09T11:31:37.613Z,98430.59
2018-09-09T11:32:43.194Z,98432.81
2018-09-09T11:33:48.080Z,98439.85
2018-09-09T11:34:52.885Z,98443.12
2018-09-09T11:35:58.673Z,98429.59
2018-09-09T11:37:05.325Z,98432.59
2018-09-09T11:38:10.612Z,98422.95
2018-09-09T11:39:19.672Z,98422.94
2018-09-09T11:40:24.524Z,98428.26
2018-09-09T11:41:30.879Z,98426.30
2018-09-09T11:42:36.281Z,98429.81
2018-09-09T11:43:41.828Z,98426.03
2018-09-09T11:44:46.440Z,98422.99
2018-09-09T11:45:54.172Z,98421.70
2018-09-09T11:46:59.266Z,98415.41
2018-09-09T11:48:03.911Z,98433.17
2018-09-09T11:49:09.346Z,98424.64
2018-09-09T11:50:14.724Z,98412.79
2018-09-09T11:51:20.091Z,98407.07
2018-09-09T11:52:24.902Z,98409.88
2018-09-09T11:53:29.770Z,98410.99
2018-09-09T11:54:35.064Z,98406.25
2018-09-09T11:55:39.686Z,98412.09
2018-09-09T11:56:45.185Z,98419.91
2018-09-09T11:57:50.680Z,98414.97
2018-09-09T11:58:55.374Z,98411.42
2018-09-09T12:00:00.216Z,98414.55
2018-09-09T12:01:04.892Z,98414.17
2018-09-09T12:02:10.184Z,98418.00
2018-09-09T12:03:17.068Z,98420.86
2018-09-09T12:04:23.595Z,98419.77
2018-09-09T12:05:31.357Z,98419.19
2018-09-09T12:06:35.945Z,98419.16
2018-09-09T12:07:40.491Z,98422.83
2018-09-09T12:08:45.722Z,98420.80
2018-09-09T12:09:51.674Z,98412.75
2018-09-09T12:10:58.719Z,98414.19
2018-09-09T12:12:05.613Z,98413.88
2018-09-09T12:13:11.183Z,98417.73
2018-09-09T12:14:16.683Z,98416.37
2018-09-09T12:15:23.364Z,98420.63
2018-09-09T12:16:28.687Z,98416.92
2018-09-09T12:17:34.875Z,98410.29
2018-09-09T12:18:40.315Z,98407.78
2018-09-09T12:19:44.852Z,98401.36
2018-09-09T12:20:49.424Z,98394.77
2018-09-09T12:21:54.123Z,98400.08
2018-09-09T12:23:00.089Z,98392.33
2018-09-09T12:24:05.599Z,98392.01
2018-09-09T12:25:11.266Z,98389.47
2018-09-09T12:26:16.212Z,98394.06
2018-09-09T12:27:20.768Z,98396.14
2018-09-09T12:28:26.423Z,98399.10
2018-09-09T12:29:31.691Z,98399.27
2018-09-09T12:30:36.511Z,98393.95
2018-09-09T12:31:41.601Z,98392.67
2018-09-09T12:32:46.196Z,98391.81
2018-09-09T12:33:50.892Z,98394.98
2018-09-09T12:34:55.404Z,98388.94
2018-09-09T12:36:01.666Z,98388.73
2018-09-09T12:37:06.995Z,98385.05
2018-09-09T12:38:11.928Z,98390.70
2018-09-09T12:39:16.688Z,98392.78
2018-09-09T12:40:21.274Z,98386.05
2018-09-09T12:41:26.476Z,98391.70
2018-09-09T12:42:31.050Z,98388.72
2018-09-09T12:43:42.179Z,98383.34
2018-09-09T12:44:53.871Z,98379.50
2018-09-09T12:46:03.921Z,98378.68
2018-09-09T12:47:13.559Z,98377.87
2018-09-09T12:48:24.440Z,98374.31
2018-09-09T12:49:30.326Z,98380.45
2018-09-09T12:50:34.905Z,98387.81